Flight Track Log - Related Links

Times and Time Zones

All times are in EDT time to prevent confusion due to time zone crossing. See the CPT7773 flight status page for this flight to view local times or setup timezone preferences in your user account.

Time Position Orientation Groundspeed Altitude Reporting Facility
EDT Latitude Longitude Course Direction KTS MPH feet Rate Location/Type
Wed 08:03:00 PM 44.3808 -108.7134 120° Southeast  Level FlightAware Approximate
Wed 08:04:00 PM 44.3592 -108.6616 120° Southeast  Level FlightAware Approximate
Wed 08:05:00 PM 44.3377 -108.6098 120° Southeast  Level FlightAware Approximate
Wed 08:06:00 PM 44.3161 -108.5581 120° Southeast  Level FlightAware Approximate
Wed 08:07:00 PM 44.2946 -108.5064 120° Southeast  Level FlightAware Approximate
Wed 08:08:00 PM 44.2729 -108.4547 120° Southeast  Level FlightAware Approximate
Wed 08:09:00 PM 44.2513 -108.4031 120° Southeast  Level FlightAware Approximate
Wed 08:10:00 PM 44.2226 -108.3588 133° Southeast  Level FlightAware Approximate
Wed 08:11:00 PM 44.1935 -108.3150 133° Southeast  Level FlightAware Approximate
Wed 08:12:00 PM 44.1643 -108.2713 133° Southeast  Level FlightAware Approximate
Wed 08:13:00 PM 44.1351 -108.2276 133° Southeast  Level FlightAware Approximate
Wed 08:14:00 PM 44.1060 -108.1839 133° Southeast  Level FlightAware Approximate
Wed 08:15:00 PM 44.0769 -108.1401 133° Southeast  Level FlightAware Approximate
Wed 08:16:00 PM 44.0478 -108.0964 133° Southeast  Level FlightAware Approximate
Wed 08:17:00 PM 44.0187 -108.0527 133° Southeast  Level FlightAware Approximate
Wed 08:18:00 PM 43.9895 -108.0091 133° Southeast  Level FlightAware Approximate
Wed 08:19:00 PM 43.9604 -107.9655 133° Southeast  Level FlightAware Approximate
Wed 08:20:00 PM 43.9362 -107.9168 120° Southeast  Level FlightAware Approximate
Wed 08:21:00 PM 43.9148 -107.8653 120° Southeast  Level FlightAware Approximate
Wed 08:22:00 PM 43.8933 -107.8138 120° Southeast  Level FlightAware Approximate
Wed 08:23:00 PM 43.8718 -107.7624 120° Southeast  Level FlightAware Approximate
Wed 08:24:00 PM 43.8467 -107.7144 128° Southeast  Level FlightAware Approximate
Wed 08:25:00 PM 43.8204 -107.6676 128° Southeast  Level FlightAware Approximate
Wed 08:26:00 PM 43.7940 -107.6208 128° Southeast  Level FlightAware Approximate
Wed 08:27:00 PM 43.7676 -107.5741 128° Southeast  Level FlightAware Approximate
Wed 08:28:00 PM 43.7412 -107.5274 128° Southeast  Level FlightAware Approximate
Wed 08:29:00 PM 43.7148 -107.4808 128° Southeast  Level FlightAware Approximate
Wed 08:30:00 PM 43.6884 -107.4342 128° Southeast  Level FlightAware Approximate
Wed 08:30:58 PM 43.7450 -107.5217 124° Southeast 156 180 11,000  Level Denver Center
Wed 08:31:00 PM 43.6619 -107.3876 128° Southeast  Level FlightAware Approximate
Wed 08:32:00 PM 43.6366 -107.3398 125° Southeast  Level FlightAware Approximate
Wed 08:32:00 PM 43.7126 -107.4799 137° Southeast  Level Estimated
Wed 08:33:00 PM 43.6123 -107.2911 125° Southeast  Level FlightAware Approximate
Wed 08:34:00 PM 43.5879 -107.2425 125° Southeast  Level FlightAware Approximate
Wed 08:35:00 PM 43.5637 -107.1937 124° Southeast  Level FlightAware Approximate
Wed 08:36:00 PM 43.5395 -107.1450 124° Southeast  Level FlightAware Approximate
Wed 08:38:07 PM 43.5075 -107.0589 137° Southeast 157 181 11,000  Level Salt Lake Center
Wed 08:39:00 PM 43.4927 -107.1985 137° Southeast  Level Estimated
Wed 08:39:09 PM 43.4836 -107.0136 126° Southeast 154 177 10,900  Level Salt Lake Center
Wed 08:40:00 PM 43.4612 -107.1585 137° Southeast  Level Estimated
Wed 08:40:17 PM 43.4558 -106.9606 126° Southeast 151 174 11,200  Level Denver Center
Wed 08:41:00 PM 43.4297 -107.1185 137° Southeast  Level Estimated
Wed 08:41:19 PM 43.4253 -106.9047 127° Southeast 158 182 11,200  Level Denver Center
Wed 08:42:00 PM 43.3982 -107.0786 137° Southeast  Level Estimated
Wed 08:42:21 PM 43.3997 -106.8583 127° Southeast 159 183 11,100  Level Denver Center
Wed 08:43:00 PM 43.3667 -107.0387 137° Southeast  Level Estimated
Wed 08:43:23 PM 43.3722 -106.8031 124° Southeast 158 182 11,000  Level Denver Center
Wed 08:44:25 PM 43.3467 -106.7536 125° Southeast 161 185 10,700 -242 Descending Denver Center
Wed 08:45:27 PM 43.3064 -106.7125 143° Southeast 162 186 10,500 -242 Descending Denver Center
Wed 08:46:29 PM 43.2669 -106.6900 157° South 160 184 10,200 -387 Descending Denver Center
Wed 08:47:31 PM 43.2219 -106.6611 155° Southeast 160 184 9,700 -726 Descending Denver Center
Wed 08:48:33 PM 43.1833 -106.6367 155° Southeast 160 184 8,700 -823 Descending Denver Center
Wed 08:49:35 PM 43.1383 -106.6075 155° Southeast 160 184 8,000 -290 Descending Denver Center
Wed 08:50:37 PM 43.1117 -106.5569 126° Southeast 169 194 8,100  Climbing Denver Center
Wed 08:51:39 PM 43.0886 -106.4983 118° Southeast 162 186 8,000  Descending Denver Center
Wed 08:52:41 PM 43.0686 -106.4481 119° Southeast 158 182 8,100  Climbing Denver Center
Wed 08:53:43 PM 43.0458 -106.3892 118° Southeast 158 182 8,000 -387 Descending Denver Center
Wed 08:54:45 PM 43.0122 -106.3628 150° Southeast 158 182 7,300 -629 Descending Denver Center
Wed 08:55:47 PM 42.9747 -106.3775 196° South 153 176 6,700 -384 Descending Denver Center
Wed 08:56:50 PM 42.9344 -106.4003 202° Southwest 151 174 6,500 -190 Descending Denver Center
Wed 08:58:00 PM 42.9000 -106.4500 216° Southwest  Level FlightAware Approximate
Wed 09:05:00 PM 42.9080 -106.4644 216° Southwest  Level Estimated
Wed 09:06:00 PM 42.9080 -106.4644 216° Southwest  Level Estimated

Login

Don't have an account? Register now (free) for customized features, flight alerts, and more!